createdAt,value
2024-04-23T00:00:50.010Z,23.00
2024-04-23T00:03:16.596Z,23.50
2024-04-23T00:05:43.157Z,21.30
2024-04-23T00:08:09.612Z,23.10
2024-04-23T00:10:36.257Z,24.90
2024-04-23T00:13:02.739Z,23.60
2024-04-23T00:15:29.213Z,19.40
2024-04-23T00:17:55.743Z,20.30
2024-04-23T00:20:22.394Z,18.00
2024-04-23T00:22:49.020Z,20.20
2024-04-23T00:25:15.669Z,19.50
2024-04-23T00:27:42.137Z,20.30
2024-04-23T00:30:09.114Z,22.40
2024-04-23T00:32:35.651Z,20.90
2024-04-23T00:35:02.864Z,21.20
2024-04-23T00:37:29.409Z,21.10
2024-04-23T00:39:56.005Z,20.10
2024-04-23T00:42:22.727Z,21.70
2024-04-23T00:44:51.581Z,20.60
2024-04-23T00:47:18.473Z,22.40
2024-04-23T00:49:45.133Z,19.60
2024-04-23T00:52:11.585Z,18.30
2024-04-23T00:54:38.334Z,18.20
2024-04-23T00:57:04.752Z,20.50
2024-04-23T00:59:31.634Z,23.60
2024-04-23T01:01:59.034Z,20.00
2024-04-23T01:04:25.778Z,21.50
2024-04-23T01:06:53.003Z,22.10
2024-04-23T01:09:20.728Z,21.90
2024-04-23T01:11:48.995Z,21.40
2024-04-23T01:14:15.534Z,20.30
2024-04-23T01:16:45.625Z,21.60
2024-04-23T01:19:25.131Z,19.50
2024-04-23T01:22:02.952Z,21.50
2024-04-23T01:24:35.735Z,22.00
2024-04-23T01:27:03.653Z,24.20
2024-04-23T01:29:31.690Z,23.30
2024-04-23T01:31:59.761Z,23.20
2024-04-23T01:34:29.532Z,21.00
2024-04-23T01:36:56.612Z,24.50
2024-04-23T01:39:24.811Z,22.00
2024-04-23T01:41:52.072Z,23.80
2024-04-23T01:44:19.915Z,23.20
2024-04-23T01:46:47.385Z,20.40
2024-04-23T01:49:14.145Z,22.70
2024-04-23T01:51:41.125Z,20.80
2024-04-23T01:54:07.536Z,18.70
2024-04-23T01:56:34.035Z,24.10
2024-04-23T01:59:00.631Z,19.10
2024-04-23T02:01:29.837Z,20.90
2024-04-23T02:03:56.558Z,18.60
2024-04-23T02:06:23.944Z,19.90
2024-04-23T02:08:52.732Z,21.30
2024-04-23T02:11:19.376Z,21.30
2024-04-23T02:13:46.037Z,18.30
2024-04-23T02:19:13.966Z,19.40
2024-04-23T02:21:40.424Z,20.50
2024-04-23T02:24:06.894Z,17.70
2024-04-23T02:26:33.339Z,18.20
2024-04-23T02:28:59.878Z,20.20
2024-04-23T02:31:26.490Z,19.70
2024-04-23T02:33:52.989Z,19.90
2024-04-23T02:36:19.441Z,22.30
2024-04-23T02:38:45.892Z,17.30
2024-04-23T02:41:12.364Z,23.20
2024-04-23T02:43:38.895Z,20.30
2024-04-23T02:46:05.490Z,19.40
2024-04-23T02:48:31.914Z,18.40
2024-04-23T02:50:58.411Z,16.90
2024-04-23T02:53:24.957Z,19.50
2024-04-23T02:55:51.467Z,18.80
2024-04-23T02:58:18.040Z,19.20
2024-04-23T03:00:44.494Z,17.20
2024-04-23T03:03:11.037Z,19.40
2024-04-23T03:05:37.572Z,21.70
2024-04-23T03:08:04.479Z,18.50
2024-04-23T03:10:30.958Z,23.80
2024-04-23T03:12:57.993Z,20.60
2024-04-23T03:15:24.494Z,20.60
2024-04-23T03:17:51.073Z,21.20
2024-04-23T03:20:18.382Z,20.10
2024-04-23T03:22:44.856Z,17.50
2024-04-23T03:25:11.366Z,17.60
2024-04-23T03:27:37.946Z,17.00
2024-04-23T03:30:04.760Z,20.30
2024-04-23T03:32:31.473Z,18.50
2024-04-23T03:34:58.209Z,21.60
2024-04-23T03:37:25.084Z,20.30
2024-04-23T03:39:51.530Z,18.70
2024-04-23T03:42:18.018Z,20.90
2024-04-23T03:44:46.707Z,18.70
2024-04-23T03:47:14.436Z,19.40
2024-04-23T03:49:40.967Z,18.50
2024-04-23T03:52:11.289Z,19.60
2024-04-23T03:54:38.143Z,19.20
2024-04-23T03:57:04.634Z,18.70
2024-04-23T03:59:31.169Z,18.30
2024-04-23T04:02:16.225Z,19.00
2024-04-23T04:05:01.652Z,17.60
2024-04-23T04:07:28.192Z,20.40
2024-04-23T04:09:55.280Z,19.00
2024-04-23T04:12:21.731Z,19.00
2024-04-23T04:14:48.237Z,22.20
2024-04-23T04:17:14.855Z,18.30
2024-04-23T04:19:42.109Z,21.40
2024-04-23T04:22:08.783Z,19.90
2024-04-23T04:24:35.260Z,22.20
2024-04-23T04:27:01.758Z,23.20
2024-04-23T04:29:28.288Z,18.30
2024-04-23T04:31:54.788Z,18.80
2024-04-23T04:34:21.921Z,21.70
2024-04-23T04:36:48.609Z,22.60
2024-04-23T04:39:15.147Z,18.70
2024-04-23T04:41:41.596Z,25.20
2024-04-23T04:44:08.129Z,21.00
2024-04-23T04:46:34.832Z,21.00
2024-04-23T04:49:01.429Z,20.80
2024-04-23T04:51:27.846Z,19.70
2024-04-23T04:53:54.335Z,20.10
2024-04-23T04:56:20.914Z,19.80
2024-04-23T04:58:47.559Z,23.00
2024-04-23T05:01:14.220Z,20.30
2024-04-23T05:03:40.787Z,21.50
2024-04-23T05:06:08.009Z,19.00
2024-04-23T05:08:34.447Z,21.60
2024-04-23T05:11:01.153Z,20.80
2024-04-23T05:13:27.783Z,24.30
2024-04-23T05:15:54.241Z,19.00
2024-04-23T05:18:20.769Z,21.90
2024-04-23T05:20:47.396Z,19.40
2024-04-23T05:23:13.824Z,21.30
2024-04-23T05:25:41.544Z,24.40
2024-04-23T05:28:08.138Z,22.20
2024-04-23T05:30:53.718Z,20.80
2024-04-23T05:33:20.288Z,25.90
2024-04-23T05:35:46.844Z,18.90
2024-04-23T05:38:16.066Z,19.20
2024-04-23T05:40:44.038Z,21.20
2024-04-23T05:43:10.673Z,22.30
2024-04-23T05:45:37.233Z,24.00
2024-04-23T05:48:41.704Z,21.30
2024-04-23T05:52:12.560Z,22.60
2024-04-23T05:55:39.323Z,24.40
2024-04-23T05:58:06.620Z,21.40
2024-04-23T06:00:33.865Z,20.50
2024-04-23T06:03:01.422Z,19.90
2024-04-23T06:05:28.608Z,21.20
2024-04-23T06:07:56.787Z,22.70
2024-04-23T06:10:23.356Z,18.50
2024-04-23T06:12:51.241Z,19.60
2024-04-23T06:15:18.738Z,20.70
2024-04-23T06:17:47.897Z,20.90
2024-04-23T06:20:15.733Z,19.20
2024-04-23T06:22:43.470Z,19.40
2024-04-23T06:25:11.636Z,17.70
2024-04-23T06:27:39.668Z,18.50
2024-04-23T06:30:11.220Z,18.00
2024-04-23T06:32:40.107Z,17.70
2024-04-23T06:35:08.559Z,17.50
2024-04-23T06:37:35.242Z,16.00
2024-04-23T06:40:05.451Z,16.40
2024-04-23T06:42:32.187Z,12.40
2024-04-23T06:44:58.742Z,14.30
2024-04-23T06:47:26.026Z,13.00
2024-04-23T06:49:52.756Z,15.00
2024-04-23T06:52:19.425Z,14.00
2024-04-23T06:54:46.198Z,15.20
2024-04-23T06:57:14.132Z,13.70
2024-04-23T06:59:43.889Z,11.60
2024-04-23T07:04:38.391Z,12.70
2024-04-23T07:07:08.020Z,10.50
2024-04-23T07:09:34.838Z,8.60
2024-04-23T07:12:01.376Z,11.70
2024-04-23T07:14:28.041Z,9.30
2024-04-23T07:16:54.690Z,4.40
2024-04-23T07:19:21.439Z,6.70
2024-04-23T07:21:47.922Z,4.60
2024-04-23T07:24:14.522Z,4.20
2024-04-23T07:26:42.785Z,5.70
2024-04-23T07:29:09.529Z,3.40
2024-04-23T07:31:36.528Z,4.10
2024-04-23T07:34:03.246Z,3.70
2024-04-23T07:36:29.865Z,3.60
2024-04-23T07:38:56.726Z,4.20
2024-04-23T07:41:23.540Z,3.30
2024-04-23T07:43:50.323Z,3.30
2024-04-23T07:46:17.280Z,3.80
2024-04-23T07:48:43.721Z,6.50
2024-04-23T07:51:10.360Z,2.40
2024-04-23T07:53:37.100Z,2.90
2024-04-23T07:56:04.416Z,3.30
2024-04-23T07:58:31.102Z,2.60
2024-04-23T08:00:57.911Z,6.50
2024-04-23T08:03:24.547Z,3.80
2024-04-23T08:05:55.506Z,3.30
2024-04-23T08:08:25.092Z,5.40
2024-04-23T08:10:51.729Z,4.70
2024-04-23T08:13:22.023Z,3.20
2024-04-23T08:15:48.619Z,4.60
2024-04-23T08:18:15.457Z,4.80
2024-04-23T08:20:42.910Z,6.30
2024-04-23T08:23:10.146Z,6.90
2024-04-23T08:25:37.298Z,5.20
2024-04-23T08:28:04.048Z,7.10
2024-04-23T08:30:30.705Z,5.90
2024-04-23T08:32:57.446Z,7.30
2024-04-23T08:35:24.240Z,7.60
2024-04-23T08:37:50.930Z,6.50
2024-04-23T08:40:17.651Z,7.80
2024-04-23T08:42:47.166Z,6.50
2024-04-23T08:45:15.494Z,6.70
2024-04-23T08:47:42.953Z,5.10
2024-04-23T08:50:10.746Z,7.10
2024-04-23T08:52:38.874Z,5.40
2024-04-23T08:55:06.552Z,6.70
2024-04-23T08:57:34.280Z,5.60
2024-04-23T09:00:03.669Z,7.60
2024-04-23T09:02:37.573Z,6.80
2024-04-23T09:05:06.376Z,12.40
2024-04-23T09:07:34.862Z,65.60
2024-04-23T09:10:06.203Z,89.10
2024-04-23T09:12:33.829Z,47.70
2024-04-23T09:15:01.168Z,20.80
2024-04-23T09:17:32.944Z,21.00
2024-04-23T09:20:01.070Z,6.80
2024-04-23T09:22:28.130Z,45.10
2024-04-23T09:25:03.092Z,13.20
2024-04-23T09:27:32.916Z,54.60
2024-04-23T09:29:59.472Z,70.50
2024-04-23T09:32:26.337Z,34.50
2024-04-23T09:34:55.225Z,12.50
2024-04-23T09:37:21.956Z,6.10
2024-04-23T09:39:48.462Z,9.60
2024-04-23T09:42:23.155Z,7.00
2024-04-23T09:44:51.581Z,5.90
2024-04-23T09:47:18.223Z,19.90
2024-04-23T09:49:54.941Z,12.00
2024-04-23T09:52:36.219Z,35.40
2024-04-23T09:55:06.244Z,21.80
2024-04-23T10:00:03.958Z,5.90
2024-04-23T10:02:31.391Z,6.10
2024-04-23T10:05:06.505Z,8.20
2024-04-23T10:07:41.838Z,5.80
2024-04-23T10:10:09.783Z,7.10
2024-04-23T10:12:42.548Z,12.10
2024-04-23T10:15:19.977Z,8.20
2024-04-23T10:17:51.611Z,7.90
2024-04-23T10:20:23.763Z,5.40
2024-04-23T10:22:55.156Z,6.60
2024-04-23T10:25:22.170Z,7.40
2024-04-23T10:27:50.922Z,6.70
2024-04-23T10:30:18.285Z,6.30
2024-04-23T10:32:45.993Z,5.70
2024-04-23T10:35:17.468Z,6.90
2024-04-23T10:37:45.485Z,8.60
2024-04-23T10:40:14.894Z,5.70
2024-04-23T10:42:41.468Z,19.30
2024-04-23T10:45:08.772Z,7.00
2024-04-23T10:47:35.427Z,27.70
2024-04-23T10:50:09.058Z,7.70
2024-04-23T10:52:36.390Z,6.00
2024-04-23T10:55:08.877Z,5.70
2024-04-23T10:57:36.811Z,6.20
2024-04-23T11:00:04.989Z,5.80
2024-04-23T11:02:38.205Z,5.60
2024-04-23T11:05:08.504Z,7.60
2024-04-23T11:07:37.740Z,6.80
2024-04-23T11:10:07.101Z,6.50
2024-04-23T11:12:37.325Z,6.10
2024-04-23T11:15:14.439Z,6.70
2024-04-23T11:17:42.100Z,6.50
2024-04-23T11:20:09.755Z,7.70
2024-04-23T11:22:54.274Z,8.60
2024-04-23T11:25:34.254Z,8.20
2024-04-23T11:28:02.281Z,7.60
2024-04-23T11:30:28.972Z,9.80
2024-04-23T11:33:00.788Z,7.10
2024-04-23T11:35:28.382Z,6.30
2024-04-23T11:37:57.322Z,7.70
2024-04-23T11:40:23.921Z,7.10
2024-04-23T11:42:50.531Z,7.00
2024-04-23T11:45:16.980Z,6.90
2024-04-23T11:47:44.718Z,8.20
2024-04-23T11:50:14.648Z,7.30
2024-04-23T11:52:42.317Z,7.30
2024-04-23T11:55:10.238Z,7.10
2024-04-23T11:57:39.904Z,7.40
2024-04-23T12:00:07.383Z,6.30
2024-04-23T12:02:34.082Z,7.10
2024-04-23T12:05:05.766Z,9.40
2024-04-23T12:07:35.146Z,6.90
2024-04-23T12:10:04.914Z,8.90
2024-04-23T12:12:37.027Z,6.50
2024-04-23T12:15:05.748Z,9.70
2024-04-23T12:17:34.438Z,7.40
2024-04-23T12:20:01.101Z,7.90
2024-04-23T12:22:27.834Z,5.90
2024-04-23T12:24:55.060Z,6.60
2024-04-23T12:27:24.839Z,6.20
2024-04-23T12:29:52.678Z,7.60
2024-04-23T12:32:24.585Z,7.80
2024-04-23T12:34:57.398Z,6.60
2024-04-23T12:37:24.315Z,11.90
2024-04-23T12:39:54.079Z,10.20
2024-04-23T12:42:25.869Z,6.20
2024-04-23T12:44:52.509Z,6.50
2024-04-23T12:47:19.452Z,8.00
2024-04-23T12:49:46.300Z,5.80
2024-04-23T12:52:12.960Z,5.10
2024-04-23T12:54:40.312Z,5.80
2024-04-23T12:57:10.511Z,7.30
2024-04-23T12:59:38.879Z,5.10
2024-04-23T13:02:08.685Z,6.00
2024-04-23T13:04:35.668Z,6.00
2024-04-23T13:07:02.187Z,6.00
2024-04-23T13:09:28.813Z,5.80
2024-04-23T13:11:57.480Z,5.80
2024-04-23T13:14:24.180Z,5.70
2024-04-23T13:16:52.068Z,8.20
2024-04-23T13:19:24.585Z,6.20
2024-04-23T13:21:51.288Z,6.50
2024-04-23T13:24:17.693Z,8.30
2024-04-23T13:26:44.403Z,5.80
2024-04-23T13:29:13.971Z,6.20
2024-04-23T13:31:40.680Z,6.30
2024-04-23T13:34:10.872Z,5.60
2024-04-23T13:36:37.443Z,5.50
2024-04-23T13:39:04.000Z,7.30
2024-04-23T13:41:30.557Z,6.00
2024-04-23T13:43:57.275Z,12.90
2024-04-23T13:46:23.770Z,23.20
2024-04-23T13:48:50.426Z,21.80
2024-04-23T13:51:17.067Z,43.00
2024-04-23T13:53:46.121Z,8.90
2024-04-23T13:56:12.930Z,7.30
2024-04-23T13:58:40.027Z,6.40
2024-04-23T14:01:10.448Z,6.90
2024-04-23T14:03:38.066Z,7.30
2024-04-23T14:06:05.980Z,6.70
2024-04-23T14:08:36.366Z,6.80
2024-04-23T14:11:04.955Z,6.80
2024-04-23T14:13:36.410Z,6.10
2024-04-23T14:16:11.275Z,6.70
2024-04-23T14:18:38.505Z,7.60
2024-04-23T14:21:05.529Z,8.60
2024-04-23T14:23:35.639Z,8.90
2024-04-23T14:26:03.115Z,7.20
2024-04-23T14:28:32.816Z,7.90
2024-04-23T14:31:05.451Z,9.20
2024-04-23T14:33:32.809Z,8.60
2024-04-23T14:36:04.393Z,7.40
2024-04-23T14:38:32.208Z,7.70
2024-04-23T14:41:03.194Z,7.60
2024-04-23T14:43:30.168Z,7.90
2024-04-23T14:45:57.271Z,15.60
2024-04-23T14:48:24.565Z,8.50
2024-04-23T14:50:51.847Z,9.70
2024-04-23T14:53:21.653Z,9.20
2024-04-23T14:56:01.083Z,9.20
2024-04-23T14:58:28.412Z,8.80
2024-04-23T15:00:55.295Z,10.00
2024-04-23T15:03:22.228Z,11.70
2024-04-23T15:05:49.170Z,8.80
2024-04-23T15:08:16.156Z,9.10
2024-04-23T15:10:49.706Z,8.90
2024-04-23T15:13:22.288Z,9.50
2024-04-23T15:15:58.435Z,8.50
2024-04-23T15:18:25.102Z,9.50
2024-04-23T15:20:51.662Z,9.20
2024-04-23T15:23:18.256Z,15.00
2024-04-23T15:25:44.912Z,44.10
2024-04-23T15:28:11.509Z,20.50
2024-04-23T15:30:37.970Z,10.30
2024-04-23T15:33:05.155Z,11.30
2024-04-23T15:35:32.566Z,9.80
2024-04-23T15:37:59.177Z,9.00
2024-04-23T15:40:25.755Z,9.20
2024-04-23T15:42:52.211Z,9.50
2024-04-23T15:45:18.787Z,11.00
2024-04-23T15:47:45.453Z,11.00
2024-04-23T15:50:15.437Z,12.60
2024-04-23T15:55:12.620Z,11.30
2024-04-23T15:57:39.177Z,10.50
2024-04-23T16:00:07.112Z,9.80
2024-04-23T16:02:34.299Z,14.00
2024-04-23T16:05:02.100Z,10.70
2024-04-23T16:07:31.820Z,12.40
2024-04-23T16:09:58.468Z,12.30
2024-04-23T16:12:24.995Z,14.30
2024-04-23T16:14:51.580Z,12.60
2024-04-23T16:17:18.239Z,10.90
2024-04-23T16:19:44.955Z,12.50
2024-04-23T16:22:11.572Z,11.70
2024-04-23T16:24:38.135Z,12.20
2024-04-23T16:27:05.385Z,14.60
2024-04-23T16:29:31.905Z,15.00
2024-04-23T16:31:58.603Z,12.70
2024-04-23T16:34:25.139Z,13.20
2024-04-23T16:36:52.109Z,25.10
2024-04-23T16:39:19.926Z,48.20
2024-04-23T16:41:49.700Z,32.00
2024-04-23T16:44:16.256Z,107.50
2024-04-23T16:46:43.044Z,197.30
2024-04-23T16:49:09.623Z,197.70
2024-04-23T16:51:36.169Z,78.50
2024-04-23T16:54:03.802Z,36.50
2024-04-23T16:56:30.673Z,25.10
2024-04-23T16:58:57.105Z,19.80
2024-04-23T17:01:23.804Z,17.30
2024-04-23T17:03:50.440Z,15.20
2024-04-23T17:06:17.031Z,16.30
2024-04-23T17:08:43.786Z,18.80
2024-04-23T17:11:10.360Z,21.10
2024-04-23T17:13:37.042Z,26.10
2024-04-23T17:16:16.955Z,32.10
2024-04-23T17:21:14.216Z,33.90
2024-04-23T17:23:40.808Z,28.00
2024-04-23T17:26:07.411Z,30.20
2024-04-23T17:28:34.046Z,27.80
2024-04-23T17:31:01.319Z,29.80
2024-04-23T17:33:27.904Z,33.90
2024-04-23T17:35:58.001Z,36.70
2024-04-23T17:40:54.499Z,47.60
2024-04-23T17:43:21.739Z,55.60
2024-04-23T17:45:51.489Z,54.30
2024-04-23T17:48:18.220Z,57.30
2024-04-23T17:50:44.941Z,61.00
2024-04-23T17:53:11.603Z,69.10
2024-04-23T17:55:39.209Z,67.60
2024-04-23T17:58:05.858Z,75.10
2024-04-23T18:00:32.477Z,53.30
2024-04-23T18:03:02.002Z,51.40
2024-04-23T18:05:28.600Z,51.40
2024-04-23T18:07:55.110Z,58.10
2024-04-23T18:10:21.704Z,67.10
2024-04-23T18:12:48.203Z,80.80
2024-04-23T18:15:14.842Z,78.70
2024-04-23T18:17:41.354Z,60.90
2024-04-23T18:20:08.288Z,42.30
2024-04-23T18:22:36.913Z,35.30
2024-04-23T18:25:04.300Z,30.20
2024-04-23T18:27:31.109Z,29.20
2024-04-23T18:29:57.558Z,27.70
2024-04-23T18:32:24.997Z,27.00
2024-04-23T18:34:51.622Z,31.60
2024-04-23T18:37:18.066Z,29.50
2024-04-23T18:39:44.646Z,29.50
2024-04-23T18:42:13.159Z,35.80
2024-04-23T18:44:39.712Z,155.70
2024-04-23T18:47:06.886Z,234.60
2024-04-23T18:49:33.427Z,254.70
2024-04-23T18:52:00.155Z,248.70
2024-04-23T18:54:26.668Z,210.40
2024-04-23T18:56:54.618Z,91.80
2024-04-23T18:59:21.414Z,56.40
2024-04-23T19:01:48.073Z,35.30
2024-04-23T19:04:14.698Z,26.80
2024-04-23T19:06:41.498Z,40.20
2024-04-23T19:09:08.100Z,46.30
2024-04-23T19:11:34.839Z,90.50
2024-04-23T19:14:11.101Z,120.30
2024-04-23T19:16:43.684Z,265.80
2024-04-23T19:19:10.368Z,310.10
2024-04-23T19:21:37.242Z,188.90
2024-04-23T19:24:03.993Z,115.20
2024-04-23T19:26:30.479Z,126.70
2024-04-23T19:28:57.001Z,129.80
2024-04-23T19:31:23.626Z,133.00
2024-04-23T19:33:50.486Z,134.30
2024-04-23T19:36:17.063Z,111.70
2024-04-23T19:38:44.803Z,142.00
2024-04-23T19:41:13.298Z,130.90
2024-04-23T19:43:51.547Z,98.70
2024-04-23T19:46:21.189Z,54.70
2024-04-23T19:48:48.743Z,42.70
2024-04-23T19:51:20.762Z,36.10
2024-04-23T19:53:50.718Z,41.00
2024-04-23T19:56:34.685Z,42.60
2024-04-23T19:59:02.803Z,63.10
2024-04-23T20:01:33.294Z,53.60
2024-04-23T20:03:59.907Z,42.60
2024-04-23T20:06:26.498Z,45.20
2024-04-23T20:08:53.034Z,37.20
2024-04-23T20:11:19.760Z,41.80
2024-04-23T20:13:46.415Z,39.30
2024-04-23T20:16:12.963Z,35.20
2024-04-23T20:18:39.657Z,36.60
2024-04-23T20:21:13.698Z,38.00
2024-04-23T20:23:41.054Z,49.30
2024-04-23T20:26:07.727Z,44.90
2024-04-23T20:28:34.247Z,46.80
2024-04-23T20:31:02.047Z,48.30
2024-04-23T20:33:28.536Z,44.90
2024-04-23T20:36:02.477Z,38.10
2024-04-23T20:38:29.065Z,43.80
2024-04-23T20:40:55.599Z,42.20
2024-04-23T20:43:22.335Z,55.20
2024-04-23T20:45:49.022Z,61.70
2024-04-23T20:48:18.597Z,59.60
2024-04-23T20:50:50.333Z,65.70
2024-04-23T20:53:16.992Z,48.40
2024-04-23T20:55:43.642Z,48.30
2024-04-23T20:58:10.149Z,63.40
2024-04-23T21:00:36.716Z,46.10
2024-04-23T21:03:04.105Z,38.40
2024-04-23T21:05:30.987Z,36.50
2024-04-23T21:07:57.598Z,42.10
2024-04-23T21:10:24.211Z,33.40
2024-04-23T21:12:50.682Z,35.00
2024-04-23T21:15:17.146Z,36.10
2024-04-23T21:17:43.868Z,30.50
2024-04-23T21:20:10.557Z,29.90
2024-04-23T21:22:37.168Z,28.00
2024-04-23T21:25:03.931Z,26.00
2024-04-23T21:27:30.438Z,29.90
2024-04-23T21:29:56.919Z,26.40
2024-04-23T21:32:24.545Z,23.50
2024-04-23T21:34:51.255Z,24.80
2024-04-23T21:37:17.710Z,29.20
2024-04-23T21:39:44.110Z,29.80
2024-04-23T21:42:12.603Z,25.70
2024-04-23T21:44:40.710Z,26.30
2024-04-23T21:47:07.410Z,24.30
2024-04-23T21:49:33.859Z,30.80
2024-04-23T21:52:16.485Z,30.10
2024-04-23T21:54:47.235Z,24.40
2024-04-23T21:57:14.172Z,25.90
2024-04-23T21:59:41.081Z,27.10
2024-04-23T22:02:07.662Z,30.30
2024-04-23T22:04:34.315Z,49.10
2024-04-23T22:07:00.850Z,45.30
2024-04-23T22:09:27.337Z,31.50
2024-04-23T22:11:53.970Z,30.70
2024-04-23T22:14:20.609Z,37.30
2024-04-23T22:16:48.079Z,45.00
2024-04-23T22:19:14.906Z,40.50
2024-04-23T22:21:41.415Z,37.70
2024-04-23T22:24:08.231Z,39.30
2024-04-23T22:26:34.759Z,34.20
2024-04-23T22:29:01.314Z,30.60
2024-04-23T22:31:27.878Z,27.50
2024-04-23T22:33:54.423Z,25.50
2024-04-23T22:36:21.071Z,25.00
2024-04-23T22:38:47.559Z,27.70
2024-04-23T22:41:14.179Z,29.40
2024-04-23T22:43:40.674Z,28.90
2024-04-23T22:46:07.139Z,27.20
2024-04-23T22:48:34.316Z,29.50
2024-04-23T22:51:01.168Z,27.60
2024-04-23T22:53:27.644Z,29.20
2024-04-23T22:55:54.214Z,28.90
2024-04-23T22:58:22.449Z,28.50
2024-04-23T23:00:49.040Z,39.40
2024-04-23T23:03:15.721Z,29.30
2024-04-23T23:05:42.494Z,28.50
2024-04-23T23:08:08.959Z,25.20
2024-04-23T23:10:35.858Z,26.90
2024-04-23T23:13:02.382Z,24.30
2024-04-23T23:15:28.800Z,26.30
2024-04-23T23:17:55.263Z,22.70
2024-04-23T23:20:21.932Z,24.10
2024-04-23T23:22:50.163Z,24.60
2024-04-23T23:25:16.800Z,27.50
2024-04-23T23:27:43.253Z,27.30
2024-04-23T23:30:10.057Z,26.00
2024-04-23T23:32:36.733Z,24.40
2024-04-23T23:35:03.427Z,28.80
2024-04-23T23:37:29.940Z,25.80
2024-04-23T23:42:40.649Z,25.70
2024-04-23T23:45:10.319Z,22.80
2024-04-23T23:47:37.347Z,25.30
2024-04-23T23:50:04.848Z,21.00
2024-04-23T23:52:31.441Z,24.80
2024-04-23T23:54:57.999Z,22.90
2024-04-23T23:57:24.435Z,21.60
2024-04-23T23:59:51.185Z,21.40
